sensor_id;sensor_type;location;lat;lon;timestamp;pressure;altitude;pressure_sealevel;temperature;humidity
48041;BME280;33815;48.386;11.738;2023-04-08T00:01:46;96587.25;;;-0.23;100.00
48041;BME280;33815;48.386;11.738;2023-04-08T00:04:11;96585.75;;;-0.27;100.00
48041;BME280;33815;48.386;11.738;2023-04-08T00:06:38;96588.06;;;-0.23;100.00
48041;BME280;33815;48.386;11.738;2023-04-08T00:09:03;96591.03;;;-0.14;100.00
48041;BME280;33815;48.386;11.738;2023-04-08T00:11:29;96587.59;;;-0.29;100.00
48041;BME280;33815;48.386;11.738;2023-04-08T00:13:54;96586.53;;;-0.25;100.00
48041;BME280;33815;48.386;11.738;2023-04-08T00:16:20;96552.28;;;-0.56;100.00
48041;BME280;33815;48.386;11.738;2023-04-08T00:18:45;96587.00;;;-0.35;100.00
48041;BME280;33815;48.386;11.738;2023-04-08T00:21:10;96569.22;;;-0.54;100.00
48041;BME280;33815;48.386;11.738;2023-04-08T00:23:35;96586.00;;;-0.48;100.00
48041;BME280;33815;48.386;11.738;2023-04-08T00:26:01;96553.72;;;-0.66;100.00
48041;BME280;33815;48.386;11.738;2023-04-08T00:28:26;96582.47;;;-0.45;100.00
48041;BME280;33815;48.386;11.738;2023-04-08T00:30:52;96592.94;;;-0.34;100.00
48041;BME280;33815;48.386;11.738;2023-04-08T00:33:17;96588.91;;;-0.38;100.00
48041;BME280;33815;48.386;11.738;2023-04-08T00:35:42;96541.91;;;-0.69;100.00
48041;BME280;33815;48.386;11.738;2023-04-08T00:38:08;96591.31;;;-0.35;100.00
48041;BME280;33815;48.386;11.738;2023-04-08T00:40:34;96592.84;;;-0.32;100.00
48041;BME280;33815;48.386;11.738;2023-04-08T00:42:59;96589.16;;;-0.27;100.00
48041;BME280;33815;48.386;11.738;2023-04-08T00:45:25;96588.06;;;-0.23;100.00
48041;BME280;33815;48.386;11.738;2023-04-08T00:47:50;96591.31;;;-0.19;100.00
48041;BME280;33815;48.386;11.738;2023-04-08T00:50:17;96595.44;;;-0.16;100.00
48041;BME280;33815;48.386;11.738;2023-04-08T00:52:42;96555.06;;;-0.43;100.00
48041;BME280;33815;48.386;11.738;2023-04-08T00:55:07;96590.00;;;-0.26;100.00
48041;BME280;33815;48.386;11.738;2023-04-08T00:57:33;96593.53;;;-0.29;100.00
48041;BME280;33815;48.386;11.738;2023-04-08T00:59:59;96602.22;;;-0.31;100.00
48041;BME280;33815;48.386;11.738;2023-04-08T01:02:36;96606.50;;;-0.32;100.00
48041;BME280;33815;48.386;11.738;2023-04-08T01:05:13;96605.84;;;-0.20;100.00
48041;BME280;33815;48.386;11.738;2023-04-08T01:07:49;96604.44;;;-0.09;100.00
48041;BME280;33815;48.386;11.738;2023-04-08T01:10:17;96593.94;;;-0.05;100.00
48041;BME280;33815;48.386;11.738;2023-04-08T01:12:48;96603.00;;;0.01;100.00
48041;BME280;33815;48.386;11.738;2023-04-08T01:15:14;96601.75;;;0.08;100.00
48041;BME280;33815;48.386;11.738;2023-04-08T01:17:42;96564.53;;;-0.13;100.00
48041;BME280;33815;48.386;11.738;2023-04-08T01:20:09;96608.53;;;0.09;100.00
48041;BME280;33815;48.386;11.738;2023-04-08T01:25:32;96605.03;;;0.26;100.00
48041;BME280;33815;48.386;11.738;2023-04-08T01:27:59;96607.59;;;0.42;100.00
48041;BME280;33815;48.386;11.738;2023-04-08T01:30:25;96607.94;;;0.50;100.00
48041;BME280;33815;48.386;11.738;2023-04-08T01:32:54;96560.84;;;0.37;100.00
48041;BME280;33815;48.386;11.738;2023-04-08T01:35:20;96590.16;;;0.63;100.00
48041;BME280;33815;48.386;11.738;2023-04-08T01:37:48;96597.09;;;0.76;100.00
48041;BME280;33815;48.386;11.738;2023-04-08T01:40:14;96592.09;;;0.89;100.00
48041;BME280;33815;48.386;11.738;2023-04-08T01:42:41;96559.47;;;0.76;100.00
48041;BME280;33815;48.386;11.738;2023-04-08T01:45:08;96593.50;;;1.09;100.00
48041;BME280;33815;48.386;11.738;2023-04-08T01:47:34;96601.00;;;1.12;100.00
48041;BME280;33815;48.386;11.738;2023-04-08T01:50:01;96602.03;;;1.24;100.00
48041;BME280;33815;48.386;11.738;2023-04-08T01:52:27;96592.75;;;1.21;100.00
48041;BME280;33815;48.386;11.738;2023-04-08T01:54:54;96562.69;;;1.09;100.00
48041;BME280;33815;48.386;11.738;2023-04-08T01:57:23;96597.63;;;1.26;100.00
48041;BME280;33815;48.386;11.738;2023-04-08T01:59:51;96592.38;;;1.42;100.00
48041;BME280;33815;48.386;11.738;2023-04-08T02:02:19;96599.81;;;1.46;100.00
48041;BME280;33815;48.386;11.738;2023-04-08T02:04:44;96594.56;;;1.48;100.00
48041;BME280;33815;48.386;11.738;2023-04-08T02:07:10;96562.75;;;1.36;100.00
48041;BME280;33815;48.386;11.738;2023-04-08T02:09:36;96569.09;;;1.45;100.00
48041;BME280;33815;48.386;11.738;2023-04-08T02:12:01;96595.56;;;1.74;100.00
48041;BME280;33815;48.386;11.738;2023-04-08T02:14:27;96598.44;;;1.82;100.00
48041;BME280;33815;48.386;11.738;2023-04-08T02:16:55;96593.13;;;1.85;100.00
48041;BME280;33815;48.386;11.738;2023-04-08T02:19:28;96597.81;;;1.79;100.00
48041;BME280;33815;48.386;11.738;2023-04-08T02:21:58;96600.75;;;1.87;100.00
48041;BME280;33815;48.386;11.738;2023-04-08T02:24:26;96591.03;;;1.78;100.00
48041;BME280;33815;48.386;11.738;2023-04-08T02:26:53;96590.72;;;1.82;100.00
48041;BME280;33815;48.386;11.738;2023-04-08T02:29:21;96597.25;;;1.88;100.00
48041;BME280;33815;48.386;11.738;2023-04-08T02:31:47;96591.56;;;1.83;100.00
48041;BME280;33815;48.386;11.738;2023-04-08T02:34:14;96604.13;;;1.87;100.00
48041;BME280;33815;48.386;11.738;2023-04-08T02:36:40;96603.84;;;1.92;100.00
48041;BME280;33815;48.386;11.738;2023-04-08T02:39:07;96605.41;;;1.95;100.00
48041;BME280;33815;48.386;11.738;2023-04-08T02:41:32;96599.25;;;1.97;100.00
48041;BME280;33815;48.386;11.738;2023-04-08T02:43:57;96607.44;;;2.17;100.00
48041;BME280;33815;48.386;11.738;2023-04-08T02:46:23;96610.56;;;2.22;100.00
48041;BME280;33815;48.386;11.738;2023-04-08T02:48:48;96575.50;;;1.94;100.00
48041;BME280;33815;48.386;11.738;2023-04-08T02:51:14;96584.31;;;1.90;100.00
48041;BME280;33815;48.386;11.738;2023-04-08T02:53:39;96602.81;;;2.09;100.00
48041;BME280;33815;48.386;11.738;2023-04-08T02:56:05;96609.78;;;2.07;100.00
48041;BME280;33815;48.386;11.738;2023-04-08T02:58:31;96575.25;;;1.84;100.00
48041;BME280;33815;48.386;11.738;2023-04-08T03:00:56;96612.25;;;2.09;100.00
48041;BME280;33815;48.386;11.738;2023-04-08T03:03:21;96604.44;;;2.10;100.00
48041;BME280;33815;48.386;11.738;2023-04-08T03:05:54;96608.84;;;2.08;100.00
48041;BME280;33815;48.386;11.738;2023-04-08T03:08:19;96609.31;;;2.00;100.00
48041;BME280;33815;48.386;11.738;2023-04-08T03:10:45;96601.00;;;1.97;100.00
48041;BME280;33815;48.386;11.738;2023-04-08T03:13:10;96612.28;;;1.94;100.00
48041;BME280;33815;48.386;11.738;2023-04-08T03:15:35;96605.34;;;1.82;100.00
48041;BME280;33815;48.386;11.738;2023-04-08T03:18:00;96616.16;;;1.87;100.00
48041;BME280;33815;48.386;11.738;2023-04-08T03:20:26;96589.41;;;1.62;100.00
48041;BME280;33815;48.386;11.738;2023-04-08T03:22:51;96619.19;;;1.79;100.00
48041;BME280;33815;48.386;11.738;2023-04-08T03:25:16;96623.34;;;1.82;100.00
48041;BME280;33815;48.386;11.738;2023-04-08T03:27:42;96616.94;;;1.75;100.00
48041;BME280;33815;48.386;11.738;2023-04-08T03:30:07;96616.94;;;1.75;100.00
48041;BME280;33815;48.386;11.738;2023-04-08T03:32:33;96621.06;;;1.77;100.00
48041;BME280;33815;48.386;11.738;2023-04-08T03:34:58;96620.84;;;1.80;100.00
48041;BME280;33815;48.386;11.738;2023-04-08T03:37:23;96623.72;;;1.76;100.00
48041;BME280;33815;48.386;11.738;2023-04-08T03:39:49;96628.75;;;1.77;100.00
48041;BME280;33815;48.386;11.738;2023-04-08T03:42:14;96625.72;;;1.85;100.00
48041;BME280;33815;48.386;11.738;2023-04-08T03:44:39;96622.13;;;1.87;100.00
48041;BME280;33815;48.386;11.738;2023-04-08T03:47:04;96596.09;;;1.65;100.00
48041;BME280;33815;48.386;11.738;2023-04-08T03:49:30;96601.06;;;1.68;100.00
48041;BME280;33815;48.386;11.738;2023-04-08T03:51:55;96633.06;;;1.91;100.00
48041;BME280;33815;48.386;11.738;2023-04-08T03:54:20;96640.97;;;1.88;100.00
48041;BME280;33815;48.386;11.738;2023-04-08T03:56:47;96633.50;;;1.83;100.00
48041;BME280;33815;48.386;11.738;2023-04-08T03:59:13;96640.13;;;1.87;100.00
48041;BME280;33815;48.386;11.738;2023-04-08T04:01:38;96639.31;;;1.87;100.00
48041;BME280;33815;48.386;11.738;2023-04-08T04:04:03;96638.44;;;2.01;100.00
48041;BME280;33815;48.386;11.738;2023-04-08T04:06:29;96630.03;;;2.12;100.00
48041;BME280;33815;48.386;11.738;2023-04-08T04:08:55;96639.59;;;2.10;100.00
48041;BME280;33815;48.386;11.738;2023-04-08T04:11:20;96640.66;;;2.20;100.00
48041;BME280;33815;48.386;11.738;2023-04-08T04:13:47;96642.63;;;2.16;100.00
48041;BME280;33815;48.386;11.738;2023-04-08T04:16:12;96644.09;;;2.20;100.00
48041;BME280;33815;48.386;11.738;2023-04-08T04:18:38;96619.25;;;1.92;100.00
48041;BME280;33815;48.386;11.738;2023-04-08T04:21:06;96653.13;;;2.13;100.00
48041;BME280;33815;48.386;11.738;2023-04-08T04:23:32;96656.94;;;2.20;100.00
48041;BME280;33815;48.386;11.738;2023-04-08T04:25:57;96650.69;;;2.25;100.00
48041;BME280;33815;48.386;11.738;2023-04-08T04:28:22;96658.56;;;2.21;100.00
48041;BME280;33815;48.386;11.738;2023-04-08T04:30:47;96645.91;;;2.18;100.00
48041;BME280;33815;48.386;11.738;2023-04-08T04:33:13;96661.16;;;2.21;100.00
48041;BME280;33815;48.386;11.738;2023-04-08T04:35:38;96647.78;;;2.16;100.00
48041;BME280;33815;48.386;11.738;2023-04-08T04:38:04;96643.00;;;2.10;100.00
48041;BME280;33815;48.386;11.738;2023-04-08T04:40:35;96651.47;;;2.12;100.00
48041;BME280;33815;48.386;11.738;2023-04-08T04:43:00;96666.28;;;2.21;100.00
48041;BME280;33815;48.386;11.738;2023-04-08T04:45:25;96629.72;;;2.03;100.00
48041;BME280;33815;48.386;11.738;2023-04-08T04:47:50;96656.88;;;2.35;100.00
48041;BME280;33815;48.386;11.738;2023-04-08T04:50:16;96663.69;;;2.36;100.00
48041;BME280;33815;48.386;11.738;2023-04-08T04:52:41;96658.44;;;2.37;100.00
48041;BME280;33815;48.386;11.738;2023-04-08T04:55:06;96669.56;;;2.38;100.00
48041;BME280;33815;48.386;11.738;2023-04-08T04:57:32;96665.66;;;2.45;100.00
48041;BME280;33815;48.386;11.738;2023-04-08T04:59:57;96657.03;;;2.46;100.00
48041;BME280;33815;48.386;11.738;2023-04-08T05:02:22;96667.66;;;2.54;100.00
48041;BME280;33815;48.386;11.738;2023-04-08T05:04:48;96680.31;;;2.57;100.00
48041;BME280;33815;48.386;11.738;2023-04-08T05:07:13;96680.88;;;2.63;100.00
48041;BME280;33815;48.386;11.738;2023-04-08T05:09:38;96681.47;;;2.66;100.00
48041;BME280;33815;48.386;11.738;2023-04-08T05:12:04;96680.09;;;2.75;100.00
48041;BME280;33815;48.386;11.738;2023-04-08T05:14:29;96676.56;;;2.76;100.00
48041;BME280;33815;48.386;11.738;2023-04-08T05:16:55;96683.16;;;2.80;100.00
48041;BME280;33815;48.386;11.738;2023-04-08T05:19:20;96684.72;;;2.83;100.00
48041;BME280;33815;48.386;11.738;2023-04-08T05:21:45;96683.59;;;2.87;100.00
48041;BME280;33815;48.386;11.738;2023-04-08T05:24:11;96686.88;;;2.89;100.00
48041;BME280;33815;48.386;11.738;2023-04-08T05:26:36;96688.25;;;2.95;100.00
48041;BME280;33815;48.386;11.738;2023-04-08T05:29:01;96684.03;;;2.94;100.00
48041;BME280;33815;48.386;11.738;2023-04-08T05:31:27;96687.75;;;3.02;100.00
48041;BME280;33815;48.386;11.738;2023-04-08T05:33:52;96685.06;;;3.04;100.00
48041;BME280;33815;48.386;11.738;2023-04-08T05:36:18;96692.41;;;3.10;100.00
48041;BME280;33815;48.386;11.738;2023-04-08T05:38:43;96684.47;;;3.13;100.00
48041;BME280;33815;48.386;11.738;2023-04-08T05:41:09;96677.16;;;3.20;100.00
48041;BME280;33815;48.386;11.738;2023-04-08T05:43:34;96683.66;;;3.25;100.00
48041;BME280;33815;48.386;11.738;2023-04-08T05:46:04;96652.13;;;3.09;100.00
48041;BME280;33815;48.386;11.738;2023-04-08T05:48:30;96684.25;;;3.42;100.00
48041;BME280;33815;48.386;11.738;2023-04-08T05:50:55;96688.50;;;3.43;100.00
48041;BME280;33815;48.386;11.738;2023-04-08T05:53:21;96691.69;;;3.47;100.00
48041;BME280;33815;48.386;11.738;2023-04-08T05:55:46;96691.59;;;3.48;100.00
48041;BME280;33815;48.386;11.738;2023-04-08T05:58:11;96693.97;;;3.51;100.00
48041;BME280;33815;48.386;11.738;2023-04-08T06:00:36;96704.97;;;3.53;100.00
48041;BME280;33815;48.386;11.738;2023-04-08T06:03:02;96701.38;;;3.56;100.00
48041;BME280;33815;48.386;11.738;2023-04-08T06:05:27;96689.31;;;3.56;100.00
48041;BME280;33815;48.386;11.738;2023-04-08T06:07:52;96700.22;;;3.73;100.00
48041;BME280;33815;48.386;11.738;2023-04-08T06:10:17;96704.03;;;3.67;100.00
48041;BME280;33815;48.386;11.738;2023-04-08T06:12:43;96709.38;;;3.90;100.00
48041;BME280;33815;48.386;11.738;2023-04-08T06:15:08;96682.28;;;3.71;100.00
48041;BME280;33815;48.386;11.738;2023-04-08T06:17:37;96715.88;;;4.08;100.00
48041;BME280;33815;48.386;11.738;2023-04-08T06:20:04;96716.75;;;4.20;100.00
48041;BME280;33815;48.386;11.738;2023-04-08T06:22:29;96715.69;;;3.99;100.00
48041;BME280;33815;48.386;11.738;2023-04-08T06:24:54;96713.28;;;4.08;100.00
48041;BME280;33815;48.386;11.738;2023-04-08T06:27:21;96686.91;;;3.92;100.00
48041;BME280;33815;48.386;11.738;2023-04-08T06:29:46;96710.38;;;4.13;100.00
48041;BME280;33815;48.386;11.738;2023-04-08T06:32:12;96691.81;;;4.08;100.00
48041;BME280;33815;48.386;11.738;2023-04-08T06:34:38;96727.38;;;4.28;100.00
48041;BME280;33815;48.386;11.738;2023-04-08T06:37:03;96726.44;;;4.29;100.00
48041;BME280;33815;48.386;11.738;2023-04-08T06:39:30;96731.91;;;4.38;100.00
48041;BME280;33815;48.386;11.738;2023-04-08T06:41:55;96695.91;;;4.23;100.00
48041;BME280;33815;48.386;11.738;2023-04-08T06:44:22;96697.72;;;4.34;100.00
48041;BME280;33815;48.386;11.738;2023-04-08T06:46:47;96735.31;;;4.62;100.00
48041;BME280;33815;48.386;11.738;2023-04-08T06:49:12;96732.34;;;4.80;100.00
48041;BME280;33815;48.386;11.738;2023-04-08T06:51:37;96735.28;;;4.87;100.00
48041;BME280;33815;48.386;11.738;2023-04-08T06:54:03;96705.97;;;4.63;100.00
48041;BME280;33815;48.386;11.738;2023-04-08T06:56:28;96735.78;;;4.92;100.00
48041;BME280;33815;48.386;11.738;2023-04-08T06:58:53;96704.19;;;4.77;100.00
48041;BME280;33815;48.386;11.738;2023-04-08T07:01:19;96738.75;;;4.98;100.00
48041;BME280;33815;48.386;11.738;2023-04-08T07:03:44;96740.06;;;5.04;100.00
48041;BME280;33815;48.386;11.738;2023-04-08T07:06:10;96742.00;;;5.13;100.00
48041;BME280;33815;48.386;11.738;2023-04-08T07:08:35;96740.56;;;5.09;100.00
48041;BME280;33815;48.386;11.738;2023-04-08T07:11:01;96757.03;;;5.20;100.00
48041;BME280;33815;48.386;11.738;2023-04-08T07:13:27;96747.09;;;5.26;100.00
48041;BME280;33815;48.386;11.738;2023-04-08T07:15:53;96758.84;;;5.30;100.00
48041;BME280;33815;48.386;11.738;2023-04-08T07:18:18;96755.34;;;5.43;100.00
48041;BME280;33815;48.386;11.738;2023-04-08T07:20:49;96751.00;;;5.43;100.00
48041;BME280;33815;48.386;11.738;2023-04-08T07:23:15;96759.44;;;5.45;100.00
48041;BME280;33815;48.386;11.738;2023-04-08T07:25:40;96756.53;;;5.50;100.00
48041;BME280;33815;48.386;11.738;2023-04-08T07:28:06;96760.19;;;5.47;100.00
48041;BME280;33815;48.386;11.738;2023-04-08T07:30:31;96759.09;;;5.39;100.00
48041;BME280;33815;48.386;11.738;2023-04-08T07:32:56;96759.53;;;5.32;100.00
48041;BME280;33815;48.386;11.738;2023-04-08T07:35:22;96768.38;;;5.41;100.00
48041;BME280;33815;48.386;11.738;2023-04-08T07:37:49;96777.66;;;5.44;100.00
48041;BME280;33815;48.386;11.738;2023-04-08T07:40:15;96774.81;;;5.36;100.00
48041;BME280;33815;48.386;11.738;2023-04-08T07:42:40;96751.06;;;5.19;100.00
48041;BME280;33815;48.386;11.738;2023-04-08T07:45:06;96773.50;;;5.30;100.00
48041;BME280;33815;48.386;11.738;2023-04-08T07:47:32;96783.03;;;5.29;100.00
48041;BME280;33815;48.386;11.738;2023-04-08T07:49:57;96779.69;;;5.16;100.00
48041;BME280;33815;48.386;11.738;2023-04-08T07:52:22;96750.13;;;4.96;100.00
48041;BME280;33815;48.386;11.738;2023-04-08T07:54:48;96773.09;;;5.12;100.00
48041;BME280;33815;48.386;11.738;2023-04-08T07:57:13;96772.38;;;5.10;100.00
48041;BME280;33815;48.386;11.738;2023-04-08T07:59:38;96776.91;;;5.19;100.00
48041;BME280;33815;48.386;11.738;2023-04-08T08:02:03;96779.59;;;5.18;100.00
48041;BME280;33815;48.386;11.738;2023-04-08T08:04:29;96782.22;;;5.29;100.00
48041;BME280;33815;48.386;11.738;2023-04-08T08:06:54;96774.97;;;5.45;99.17
48041;BME280;33815;48.386;11.738;2023-04-08T08:09:20;96784.09;;;5.74;99.07
48041;BME280;33815;48.386;11.738;2023-04-08T08:11:45;96774.97;;;6.15;94.68
48041;BME280;33815;48.386;11.738;2023-04-08T08:14:10;96776.22;;;5.87;93.35
48041;BME280;33815;48.386;11.738;2023-04-08T08:16:37;96776.94;;;5.89;97.34
48041;BME280;33815;48.386;11.738;2023-04-08T08:19:03;96783.28;;;5.96;98.57
48041;BME280;33815;48.386;11.738;2023-04-08T08:21:31;96742.00;;;5.72;94.83
48041;BME280;33815;48.386;11.738;2023-04-08T08:23:56;96782.19;;;5.64;93.14
48041;BME280;33815;48.386;11.738;2023-04-08T08:26:23;96778.06;;;5.62;93.85
48041;BME280;33815;48.386;11.738;2023-04-08T08:28:49;96777.94;;;5.63;94.37
48041;BME280;33815;48.386;11.738;2023-04-08T08:31:14;96772.22;;;5.71;94.59
48041;BME280;33815;48.386;11.738;2023-04-08T08:33:39;96792.50;;;5.53;93.89
48041;BME280;33815;48.386;11.738;2023-04-08T08:36:05;96783.06;;;5.41;94.17
48041;BME280;33815;48.386;11.738;2023-04-08T08:38:31;96782.41;;;5.50;94.12
48041;BME280;33815;48.386;11.738;2023-04-08T08:40:57;96781.91;;;5.45;94.21
48041;BME280;33815;48.386;11.738;2023-04-08T08:43:23;96753.69;;;5.30;94.10
48041;BME280;33815;48.386;11.738;2023-04-08T08:45:49;96776.88;;;5.55;93.67
48041;BME280;33815;48.386;11.738;2023-04-08T08:48:15;96777.81;;;5.65;93.13
48041;BME280;33815;48.386;11.738;2023-04-08T08:50:41;96795.03;;;5.89;92.67
48041;BME280;33815;48.386;11.738;2023-04-08T08:53:06;96773.69;;;5.98;91.61
48041;BME280;33815;48.386;11.738;2023-04-08T08:55:32;96765.81;;;5.99;90.71
48041;BME280;33815;48.386;11.738;2023-04-08T08:58:02;96792.84;;;6.18;88.29
48041;BME280;33815;48.386;11.738;2023-04-08T09:00:38;96798.97;;;6.28;88.33
48041;BME280;33815;48.386;11.738;2023-04-08T09:03:16;96786.50;;;6.22;89.41
48041;BME280;33815;48.386;11.738;2023-04-08T09:05:49;96794.28;;;6.11;90.43
48041;BME280;33815;48.386;11.738;2023-04-08T09:08:31;96792.56;;;5.87;91.62
48041;BME280;33815;48.386;11.738;2023-04-08T09:11:29;96807.56;;;5.71;92.93
48041;BME280;33815;48.386;11.738;2023-04-08T09:13:56;96775.47;;;5.51;93.72
48041;BME280;33815;48.386;11.738;2023-04-08T09:16:21;96805.00;;;5.82;93.84
48041;BME280;33815;48.386;11.738;2023-04-08T09:18:47;96810.09;;;5.48;95.46
48041;BME280;33815;48.386;11.738;2023-04-08T09:21:14;96810.97;;;5.24;98.33
48041;BME280;33815;48.386;11.738;2023-04-08T09:23:42;96812.56;;;5.14;100.00
48041;BME280;33815;48.386;11.738;2023-04-08T09:26:19;96812.66;;;5.37;100.00
48041;BME280;33815;48.386;11.738;2023-04-08T09:29:05;96814.88;;;5.65;100.00
48041;BME280;33815;48.386;11.738;2023-04-08T09:31:32;96823.50;;;5.89;98.34
48041;BME280;33815;48.386;11.738;2023-04-08T09:33:59;96812.44;;;5.87;96.49
48041;BME280;33815;48.386;11.738;2023-04-08T09:36:27;96786.09;;;5.93;97.57
48041;BME280;33815;48.386;11.738;2023-04-08T09:38:53;96815.59;;;6.26;95.93
48041;BME280;33815;48.386;11.738;2023-04-08T09:41:21;96801.06;;;5.89;95.44
48041;BME280;33815;48.386;11.738;2023-04-08T09:43:50;96803.56;;;5.66;95.53
48041;BME280;33815;48.386;11.738;2023-04-08T09:46:18;96831.19;;;5.66;97.73
48041;BME280;33815;48.386;11.738;2023-04-08T09:48:57;96838.63;;;5.35;99.29
48041;BME280;33815;48.386;11.738;2023-04-08T09:51:25;96841.09;;;5.37;99.94
48041;BME280;33815;48.386;11.738;2023-04-08T09:54:00;96833.22;;;5.38;100.00
48041;BME280;33815;48.386;11.738;2023-04-08T09:56:32;96833.06;;;5.04;100.00
48041;BME280;33815;48.386;11.738;2023-04-08T09:59:02;96833.69;;;5.08;100.00
48041;BME280;33815;48.386;11.738;2023-04-08T10:01:38;96839.69;;;5.08;100.00
48041;BME280;33815;48.386;11.738;2023-04-08T10:04:09;96846.59;;;5.08;100.00
48041;BME280;33815;48.386;11.738;2023-04-08T10:06:37;96836.53;;;4.92;100.00
48041;BME280;33815;48.386;11.738;2023-04-08T10:09:02;96829.06;;;5.00;100.00
48041;BME280;33815;48.386;11.738;2023-04-08T10:11:28;96835.84;;;5.49;100.00
48041;BME280;33815;48.386;11.738;2023-04-08T10:13:54;96837.97;;;5.91;96.87
48041;BME280;33815;48.386;11.738;2023-04-08T10:16:23;96840.09;;;5.97;95.73
48041;BME280;33815;48.386;11.738;2023-04-08T10:18:51;96834.38;;;5.58;96.32
48041;BME280;33815;48.386;11.738;2023-04-08T10:23:57;96835.81;;;5.14;100.00
48041;BME280;33815;48.386;11.738;2023-04-08T10:26:37;96832.97;;;5.06;100.00
48041;BME280;33815;48.386;11.738;2023-04-08T10:34:16;96841.78;;;4.90;100.00
48041;BME280;33815;48.386;11.738;2023-04-08T10:36:42;96848.56;;;4.80;100.00
48041;BME280;33815;48.386;11.738;2023-04-08T10:39:08;96849.81;;;4.74;100.00
48041;BME280;33815;48.386;11.738;2023-04-08T10:41:33;96843.88;;;4.48;100.00
48041;BME280;33815;48.386;11.738;2023-04-08T10:44:02;96837.78;;;4.49;100.00
48041;BME280;33815;48.386;11.738;2023-04-08T10:46:27;96843.34;;;4.43;100.00
48041;BME280;33815;48.386;11.738;2023-04-08T10:48:59;96847.59;;;4.44;100.00
48041;BME280;33815;48.386;11.738;2023-04-08T10:51:29;96845.22;;;4.41;100.00
48041;BME280;33815;48.386;11.738;2023-04-08T10:54:04;96853.44;;;4.72;100.00
48041;BME280;33815;48.386;11.738;2023-04-08T10:56:29;96851.06;;;4.56;100.00
48041;BME280;33815;48.386;11.738;2023-04-08T10:58:55;96855.25;;;4.33;100.00
48041;BME280;33815;48.386;11.738;2023-04-08T11:01:21;96849.75;;;4.37;100.00
48041;BME280;33815;48.386;11.738;2023-04-08T11:03:46;96853.28;;;4.49;100.00
48041;BME280;33815;48.386;11.738;2023-04-08T11:06:12;96853.78;;;4.41;100.00
48041;BME280;33815;48.386;11.738;2023-04-08T11:08:37;96833.97;;;4.29;100.00
48041;BME280;33815;48.386;11.738;2023-04-08T11:11:04;96850.78;;;4.35;100.00
48041;BME280;33815;48.386;11.738;2023-04-08T11:13:33;96857.19;;;4.16;100.00
48041;BME280;33815;48.386;11.738;2023-04-08T11:16:00;96866.06;;;4.12;100.00
48041;BME280;33815;48.386;11.738;2023-04-08T11:18:26;96870.31;;;4.13;100.00
48041;BME280;33815;48.386;11.738;2023-04-08T11:20:53;96828.19;;;4.00;100.00
48041;BME280;33815;48.386;11.738;2023-04-08T11:23:18;96856.25;;;4.43;100.00
48041;BME280;33815;48.386;11.738;2023-04-08T11:25:45;96854.59;;;4.29;100.00
48041;BME280;33815;48.386;11.738;2023-04-08T11:28:11;96861.44;;;4.30;100.00
48041;BME280;33815;48.386;11.738;2023-04-08T11:30:38;96872.88;;;4.00;100.00
48041;BME280;33815;48.386;11.738;2023-04-08T11:33:05;96819.75;;;3.72;100.00
48041;BME280;33815;48.386;11.738;2023-04-08T11:35:31;96862.69;;;4.11;100.00
48041;BME280;33815;48.386;11.738;2023-04-08T11:37:56;96863.28;;;4.02;100.00
48041;BME280;33815;48.386;11.738;2023-04-08T11:40:22;96862.16;;;4.06;100.00
48041;BME280;33815;48.386;11.738;2023-04-08T11:42:49;96840.28;;;4.12;100.00
48041;BME280;33815;48.386;11.738;2023-04-08T11:45:16;96841.53;;;3.93;100.00
48041;BME280;33815;48.386;11.738;2023-04-08T11:47:42;96876.50;;;4.10;100.00
48041;BME280;33815;48.386;11.738;2023-04-08T11:50:08;96859.56;;;4.19;100.00
48041;BME280;33815;48.386;11.738;2023-04-08T11:52:45;96867.00;;;3.98;100.00
48041;BME280;33815;48.386;11.738;2023-04-08T11:55:20;96868.75;;;4.10;100.00
48041;BME280;33815;48.386;11.738;2023-04-08T11:57:45;96856.19;;;3.93;100.00
48041;BME280;33815;48.386;11.738;2023-04-08T12:00:11;96865.56;;;4.20;100.00
48041;BME280;33815;48.386;11.738;2023-04-08T12:02:36;96862.34;;;4.29;100.00
48041;BME280;33815;48.386;11.738;2023-04-08T12:05:02;96866.38;;;4.33;100.00
48041;BME280;33815;48.386;11.738;2023-04-08T12:07:27;96864.72;;;4.19;100.00
48041;BME280;33815;48.386;11.738;2023-04-08T12:09:52;96872.25;;;4.09;100.00
48041;BME280;33815;48.386;11.738;2023-04-08T12:12:17;96876.91;;;3.91;100.00
48041;BME280;33815;48.386;11.738;2023-04-08T12:14:43;96878.53;;;3.80;100.00
48041;BME280;33815;48.386;11.738;2023-04-08T12:17:08;96874.59;;;3.74;100.00
48041;BME280;33815;48.386;11.738;2023-04-08T12:19:33;96875.41;;;3.62;100.00
48041;BME280;33815;48.386;11.738;2023-04-08T12:21:58;96869.09;;;3.53;100.00
48041;BME280;33815;48.386;11.738;2023-04-08T12:24:24;96839.56;;;3.31;100.00
48041;BME280;33815;48.386;11.738;2023-04-08T12:26:49;96881.66;;;3.57;100.00
48041;BME280;33815;48.386;11.738;2023-04-08T12:29:14;96851.59;;;3.31;100.00
48041;BME280;33815;48.386;11.738;2023-04-08T12:31:40;96889.16;;;3.48;100.00
48041;BME280;33815;48.386;11.738;2023-04-08T12:34:05;96882.50;;;3.45;100.00
48041;BME280;33815;48.386;11.738;2023-04-08T12:36:31;96885.06;;;3.45;100.00
48041;BME280;33815;48.386;11.738;2023-04-08T12:38:56;96888.59;;;3.57;100.00
48041;BME280;33815;48.386;11.738;2023-04-08T12:41:21;96886.69;;;3.86;100.00
48041;BME280;33815;48.386;11.738;2023-04-08T12:43:47;96878.75;;;4.02;100.00
48041;BME280;33815;48.386;11.738;2023-04-08T12:46:12;96880.84;;;4.23;100.00
48041;BME280;33815;48.386;11.738;2023-04-08T12:48:37;96879.81;;;4.38;100.00
48041;BME280;33815;48.386;11.738;2023-04-08T12:51:03;96875.97;;;4.44;100.00
48041;BME280;33815;48.386;11.738;2023-04-08T12:53:28;96875.22;;;4.68;100.00
48041;BME280;33815;48.386;11.738;2023-04-08T12:55:53;96874.22;;;4.57;100.00
48041;BME280;33815;48.386;11.738;2023-04-08T12:58:22;96873.56;;;4.67;100.00